createdAt,value
2023-02-25T00:00:19.503Z,2.35
2023-02-25T00:03:05.015Z,2.03
2023-02-25T00:05:50.216Z,1.60
2023-02-25T00:08:36.332Z,2.25
2023-02-25T00:11:23.099Z,2.67
2023-02-25T00:14:09.724Z,2.28
2023-02-25T00:16:57.618Z,2.38
2023-02-25T00:19:42.856Z,2.25
2023-02-25T00:22:28.383Z,1.95
2023-02-25T00:25:16.746Z,2.20
2023-02-25T00:28:06.177Z,2.33
2023-02-25T00:30:51.357Z,2.03
2023-02-25T00:33:37.429Z,1.65
2023-02-25T00:36:25.524Z,2.10
2023-02-25T00:39:11.450Z,2.13
2023-02-25T00:41:56.388Z,1.70
2023-02-25T00:44:47.259Z,1.95
2023-02-25T00:47:32.251Z,2.85
2023-02-25T00:50:17.423Z,2.42
2023-02-25T00:53:02.606Z,2.10
2023-02-25T00:55:47.608Z,2.42
2023-02-25T00:58:35.682Z,2.28
2023-02-25T01:01:27.805Z,2.45
2023-02-25T01:04:13.585Z,2.35
2023-02-25T01:06:58.568Z,2.95
2023-02-25T01:09:44.717Z,3.25
2023-02-25T01:12:30.303Z,2.80
2023-02-25T01:15:15.559Z,2.80
2023-02-25T01:18:00.859Z,2.90
2023-02-25T01:20:46.628Z,3.00
2023-02-25T01:23:31.885Z,3.28
2023-02-25T01:26:17.077Z,3.40
2023-02-25T01:29:02.041Z,3.45
2023-02-25T01:31:47.626Z,3.08
2023-02-25T01:34:33.458Z,3.25
2023-02-25T01:37:18.589Z,3.00
2023-02-25T01:40:04.948Z,3.03
2023-02-25T01:42:49.985Z,3.58
2023-02-25T01:45:42.409Z,2.95
2023-02-25T01:48:31.282Z,3.38
2023-02-25T01:51:16.329Z,3.10
2023-02-25T01:54:03.770Z,3.08
2023-02-25T01:56:53.652Z,2.80
2023-02-25T01:59:40.655Z,3.08
2023-02-25T02:02:28.676Z,2.72
2023-02-25T02:05:15.224Z,2.70
2023-02-25T02:08:00.404Z,2.63
2023-02-25T02:10:45.470Z,2.58
2023-02-25T02:13:34.247Z,2.72
2023-02-25T02:16:28.516Z,2.90
2023-02-25T02:19:28.072Z,3.22
2023-02-25T02:22:43.585Z,2.90
2023-02-25T02:25:47.412Z,3.08
2023-02-25T02:28:49.893Z,3.50
2023-02-25T02:32:05.101Z,3.97
2023-02-25T02:35:16.939Z,3.53
2023-02-25T02:38:12.347Z,3.75
2023-02-25T02:41:17.704Z,3.60
2023-02-25T02:44:07.334Z,3.65
2023-02-25T02:47:01.249Z,3.28
2023-02-25T02:50:02.427Z,3.72
2023-02-25T02:52:52.390Z,3.63
2023-02-25T02:55:43.734Z,3.15
2023-02-25T02:58:38.646Z,3.00
2023-02-25T03:01:30.599Z,3.42
2023-02-25T03:04:20.025Z,3.53
2023-02-25T03:07:10.181Z,3.42
2023-02-25T03:10:04.902Z,3.08
2023-02-25T03:12:50.254Z,2.90
2023-02-25T03:15:36.981Z,3.50
2023-02-25T03:18:35.807Z,3.40
2023-02-25T03:21:26.782Z,2.90
2023-02-25T03:24:22.370Z,2.90
2023-02-25T03:27:27.441Z,2.88
2023-02-25T03:30:29.215Z,2.83
2023-02-25T03:33:29.416Z,2.83
2023-02-25T03:39:11.369Z,3.10
2023-02-25T03:42:01.732Z,3.50
2023-02-25T03:44:52.288Z,3.72
2023-02-25T03:47:38.529Z,3.95
2023-02-25T03:50:33.288Z,3.58
2023-02-25T03:53:18.415Z,4.15
2023-02-25T03:56:07.951Z,3.50
2023-02-25T03:58:53.170Z,4.20
2023-02-25T04:01:40.948Z,3.53
2023-02-25T04:04:26.498Z,3.70
2023-02-25T04:07:11.796Z,4.00
2023-02-25T04:09:56.880Z,4.00
2023-02-25T04:12:42.388Z,3.53
2023-02-25T04:15:28.983Z,3.72
2023-02-25T04:18:15.069Z,3.50
2023-02-25T04:21:00.908Z,4.15
2023-02-25T04:23:45.804Z,3.28
2023-02-25T04:26:31.122Z,3.83
2023-02-25T04:29:16.018Z,3.33
2023-02-25T04:32:01.282Z,3.90
2023-02-25T04:34:46.202Z,3.42
2023-02-25T04:37:31.606Z,4.07
2023-02-25T04:40:19.199Z,3.92
2023-02-25T04:43:04.415Z,3.35
2023-02-25T04:45:49.698Z,2.63
2023-02-25T04:48:34.580Z,3.15
2023-02-25T04:51:21.127Z,3.20
2023-02-25T04:54:06.119Z,3.25
2023-02-25T04:56:51.156Z,3.33
2023-02-25T04:59:36.160Z,3.25
2023-02-25T05:02:21.120Z,2.70
2023-02-25T05:05:06.841Z,2.80
2023-02-25T05:07:52.351Z,1.85
2023-02-25T05:10:37.198Z,2.55
2023-02-25T05:13:22.742Z,2.53
2023-02-25T05:16:10.869Z,2.92
2023-02-25T05:18:56.260Z,2.13
2023-02-25T05:21:41.429Z,2.88
2023-02-25T05:24:26.314Z,2.15
2023-02-25T05:27:11.729Z,2.38
2023-02-25T05:29:57.295Z,2.40
2023-02-25T05:32:42.905Z,2.67
2023-02-25T05:35:27.896Z,2.53
2023-02-25T05:38:13.195Z,2.17
2023-02-25T05:41:01.830Z,2.83
2023-02-25T05:43:47.025Z,2.53
2023-02-25T05:46:32.402Z,2.70
2023-02-25T05:49:17.398Z,2.88
2023-02-25T05:52:02.492Z,2.70
2023-02-25T05:54:48.435Z,2.58
2023-02-25T05:57:33.456Z,2.80
2023-02-25T06:00:21.552Z,2.20
2023-02-25T06:03:06.963Z,2.90
2023-02-25T06:05:53.412Z,2.50
2023-02-25T06:08:39.058Z,2.20
2023-02-25T06:11:27.487Z,2.50
2023-02-25T06:14:12.281Z,2.72
2023-02-25T06:16:57.401Z,2.22
2023-02-25T06:19:42.494Z,2.33
2023-02-25T06:22:27.922Z,1.90
2023-02-25T06:25:12.859Z,2.58
2023-02-25T06:28:01.673Z,2.60
2023-02-25T06:30:47.040Z,3.35
2023-02-25T06:33:32.351Z,3.03
2023-02-25T06:36:20.611Z,3.38
2023-02-25T06:39:05.800Z,2.97
2023-02-25T06:41:51.251Z,2.65
2023-02-25T06:44:36.393Z,2.63
2023-02-25T06:47:22.837Z,3.17
2023-02-25T06:50:08.646Z,3.50
2023-02-25T06:52:53.528Z,2.60
2023-02-25T06:55:40.105Z,3.05
2023-02-25T06:58:25.485Z,3.47
2023-02-25T07:01:14.319Z,3.22
2023-02-25T07:03:59.320Z,3.10
2023-02-25T07:06:45.071Z,3.78
2023-02-25T07:09:30.132Z,3.25
2023-02-25T07:12:15.475Z,3.30
2023-02-25T07:15:00.681Z,3.38
2023-02-25T07:17:45.926Z,3.25
2023-02-25T07:20:31.220Z,3.42
2023-02-25T07:23:16.444Z,3.22
2023-02-25T07:26:06.274Z,4.50
2023-02-25T07:28:51.225Z,3.55
2023-02-25T07:31:36.527Z,4.10
2023-02-25T07:34:21.561Z,4.30
2023-02-25T07:37:06.572Z,5.07
2023-02-25T07:39:51.745Z,5.22
2023-02-25T07:42:36.802Z,4.72
2023-02-25T07:45:22.887Z,5.28
2023-02-25T07:48:08.313Z,4.85
2023-02-25T07:50:54.461Z,4.65
2023-02-25T07:53:39.942Z,4.43
2023-02-25T07:56:27.668Z,4.28
2023-02-25T07:59:13.302Z,4.90
2023-02-25T08:01:58.342Z,4.57
2023-02-25T08:04:43.520Z,4.25
2023-02-25T08:07:30.196Z,3.53
2023-02-25T08:10:15.308Z,3.88
2023-02-25T08:13:00.550Z,3.45
2023-02-25T08:15:46.546Z,3.42
2023-02-25T08:18:31.568Z,3.60
2023-02-25T08:21:21.742Z,3.30
2023-02-25T08:24:08.034Z,3.30
2023-02-25T08:26:54.721Z,3.47
2023-02-25T08:29:39.675Z,2.58
2023-02-25T08:32:27.479Z,3.60
2023-02-25T08:35:13.339Z,2.65
2023-02-25T08:37:58.385Z,2.72
2023-02-25T08:40:44.766Z,3.42
2023-02-25T08:43:30.263Z,3.33
2023-02-25T08:46:15.521Z,3.25
2023-02-25T08:49:01.370Z,2.38
2023-02-25T08:51:46.338Z,2.30
2023-02-25T08:54:32.616Z,2.40
2023-02-25T08:57:17.723Z,3.10
2023-02-25T09:00:06.255Z,3.20
2023-02-25T09:02:51.931Z,2.35
2023-02-25T09:05:38.071Z,2.40
2023-02-25T09:08:23.030Z,2.35
2023-02-25T09:11:08.567Z,2.60
2023-02-25T09:13:54.294Z,2.47
2023-02-25T09:16:39.558Z,2.03
2023-02-25T09:19:24.590Z,2.25
2023-02-25T09:22:10.380Z,2.17
2023-02-25T09:24:56.045Z,3.78
2023-02-25T09:27:40.903Z,2.55
2023-02-25T09:30:26.581Z,2.97
2023-02-25T09:33:11.762Z,2.83
2023-02-25T09:36:21.889Z,2.63
2023-02-25T09:39:10.384Z,2.70
2023-02-25T09:42:09.638Z,2.00
2023-02-25T09:45:02.452Z,2.55
2023-02-25T09:47:58.042Z,3.13
2023-02-25T09:50:51.995Z,2.28
2023-02-25T09:53:44.451Z,2.47
2023-02-25T09:56:30.676Z,2.72
2023-02-25T09:59:22.118Z,2.33
2023-02-25T10:02:22.684Z,2.70
2023-02-25T10:05:26.482Z,3.00
2023-02-25T10:08:22.204Z,2.65
2023-02-25T10:11:12.723Z,2.78
2023-02-25T10:14:04.230Z,2.47
2023-02-25T10:16:55.755Z,2.95
2023-02-25T10:19:53.889Z,2.25
2023-02-25T10:22:48.734Z,2.72
2023-02-25T10:25:39.969Z,2.10
2023-02-25T10:28:25.121Z,2.30
2023-02-25T10:31:18.658Z,2.40
2023-02-25T10:34:28.408Z,2.58
2023-02-25T10:37:20.338Z,2.30
2023-02-25T10:40:11.045Z,3.00
2023-02-25T10:43:00.800Z,2.03
2023-02-25T10:45:49.685Z,2.65
2023-02-25T10:48:36.114Z,2.30
2023-02-25T10:51:21.253Z,2.47
2023-02-25T10:54:08.375Z,2.72
2023-02-25T10:56:55.200Z,2.70
2023-02-25T10:59:42.820Z,2.08
2023-02-25T11:02:31.471Z,2.53
2023-02-25T11:05:40.704Z,2.35
2023-02-25T11:08:32.880Z,2.65
2023-02-25T11:11:31.855Z,2.45
2023-02-25T11:17:07.289Z,2.00
2023-02-25T11:20:00.079Z,2.30
2023-02-25T11:22:46.623Z,2.03
2023-02-25T11:25:43.593Z,1.50
2023-02-25T11:28:39.486Z,2.22
2023-02-25T11:31:33.253Z,1.50
2023-02-25T11:34:30.932Z,2.03
2023-02-25T11:37:31.385Z,1.95
2023-02-25T11:40:28.021Z,1.90
2023-02-25T11:43:19.924Z,2.30
2023-02-25T11:46:19.613Z,1.77
2023-02-25T11:49:25.198Z,2.38
2023-02-25T11:52:19.067Z,1.92
2023-02-25T11:55:19.404Z,1.60
2023-02-25T11:58:23.311Z,1.95
2023-02-25T12:01:21.453Z,1.92
2023-02-25T12:04:09.528Z,1.80
2023-02-25T12:07:03.654Z,2.10
2023-02-25T12:10:09.070Z,1.55
2023-02-25T12:13:15.712Z,1.73
2023-02-25T12:16:31.739Z,1.70
2023-02-25T12:19:48.069Z,1.33
2023-02-25T12:22:52.180Z,1.30
2023-02-25T12:25:57.904Z,1.48
2023-02-25T12:29:03.497Z,2.35
2023-02-25T12:32:16.097Z,1.77
2023-02-25T12:35:27.436Z,2.67
2023-02-25T12:38:49.588Z,1.60
2023-02-25T12:42:10.383Z,1.67
2023-02-25T12:45:01.383Z,2.65
2023-02-25T12:48:06.406Z,1.92
2023-02-25T12:51:14.764Z,2.53
2023-02-25T12:54:34.673Z,1.58
2023-02-25T13:00:33.337Z,1.75
2023-02-25T13:03:54.526Z,2.05
2023-02-25T13:06:45.729Z,1.60
2023-02-25T13:09:36.649Z,1.60
2023-02-25T13:12:24.534Z,1.60
2023-02-25T13:15:20.488Z,1.70
2023-02-25T13:18:11.770Z,2.00
2023-02-25T13:21:22.585Z,2.40
2023-02-25T13:24:35.521Z,3.00
2023-02-25T13:27:53.618Z,2.15
2023-02-25T13:30:47.202Z,2.03
2023-02-25T13:33:41.330Z,1.45
2023-02-25T13:36:51.247Z,1.73
2023-02-25T13:40:21.254Z,2.15
2023-02-25T13:43:25.620Z,1.70
2023-02-25T13:46:42.144Z,1.92
2023-02-25T13:49:48.991Z,1.70
2023-02-25T13:52:57.494Z,1.50
2023-02-25T13:55:54.598Z,5.82
2023-02-25T13:58:55.850Z,2.10
2023-02-25T14:01:59.735Z,1.70
2023-02-25T14:04:49.311Z,1.95
2023-02-25T14:07:51.560Z,2.22
2023-02-25T14:10:43.489Z,1.88
2023-02-25T14:13:47.152Z,2.75
2023-02-25T14:17:08.580Z,1.77
2023-02-25T14:20:23.120Z,2.03
2023-02-25T14:23:14.015Z,1.70
2023-02-25T14:26:11.180Z,2.22
2023-02-25T14:29:20.791Z,1.83
2023-02-25T14:32:08.971Z,1.98
2023-02-25T14:35:32.028Z,1.58
2023-02-25T14:38:28.071Z,1.85
2023-02-25T14:41:34.491Z,1.95
2023-02-25T14:44:39.843Z,2.20
2023-02-25T14:48:12.319Z,1.45
2023-02-25T14:51:19.223Z,1.88
2023-02-25T14:54:42.154Z,1.80
2023-02-25T14:57:45.898Z,2.05
2023-02-25T15:00:49.619Z,2.20
2023-02-25T15:04:22.937Z,1.90
2023-02-25T15:07:21.037Z,1.38
2023-02-25T15:10:25.288Z,2.10
2023-02-25T15:13:19.804Z,2.00
2023-02-25T15:16:23.136Z,1.42
2023-02-25T15:19:27.598Z,1.42
2023-02-25T15:22:25.965Z,1.60
2023-02-25T15:25:20.400Z,6.10
2023-02-25T15:28:31.564Z,2.10
2023-02-25T15:31:32.984Z,1.67
2023-02-25T15:34:21.397Z,1.92
2023-02-25T15:37:28.415Z,2.22
2023-02-25T15:40:16.468Z,2.67
2023-02-25T15:43:26.402Z,2.70
2023-02-25T15:46:11.609Z,2.28
2023-02-25T15:49:15.711Z,1.60
2023-02-25T15:52:04.479Z,1.92
2023-02-25T15:54:50.864Z,2.05
2023-02-25T15:57:37.346Z,1.90
2023-02-25T16:00:51.134Z,1.98
2023-02-25T16:03:36.715Z,2.83
2023-02-25T16:06:39.062Z,2.05
2023-02-25T16:09:26.258Z,1.85
2023-02-25T16:12:14.373Z,1.92
2023-02-25T16:14:59.912Z,1.95
2023-02-25T16:17:45.402Z,2.40
2023-02-25T16:20:40.353Z,2.85
2023-02-25T16:23:25.873Z,1.80
2023-02-25T16:26:34.184Z,1.67
2023-02-25T16:30:05.752Z,1.63
2023-02-25T16:32:59.352Z,2.22
2023-02-25T16:35:55.425Z,1.95
2023-02-25T16:39:07.287Z,2.25
2023-02-25T16:41:53.352Z,1.95
2023-02-25T16:44:39.791Z,2.28
2023-02-25T16:47:27.620Z,2.25
2023-02-25T16:50:15.939Z,1.83
2023-02-25T16:53:03.406Z,2.25
2023-02-25T16:55:49.818Z,2.00
2023-02-25T16:58:35.127Z,1.85
2023-02-25T17:01:23.959Z,2.80
2023-02-25T17:04:19.866Z,2.03
2023-02-25T17:07:28.085Z,2.60
2023-02-25T17:10:24.533Z,2.22
2023-02-25T17:13:16.183Z,2.13
2023-02-25T17:16:03.909Z,2.25
2023-02-25T17:18:53.595Z,2.28
2023-02-25T17:21:44.329Z,2.00
2023-02-25T17:24:32.324Z,2.83
2023-02-25T17:27:19.168Z,3.20
2023-02-25T17:30:06.324Z,2.20
2023-02-25T17:32:59.072Z,3.03
2023-02-25T17:35:47.939Z,2.60
2023-02-25T17:38:33.514Z,2.78
2023-02-25T17:41:21.194Z,2.70
2023-02-25T17:44:10.405Z,2.72
2023-02-25T17:46:55.487Z,3.65
2023-02-25T17:49:40.844Z,3.58
2023-02-25T17:52:32.385Z,2.97
2023-02-25T17:55:27.891Z,2.85
2023-02-25T17:58:22.968Z,2.78
2023-02-25T18:01:10.184Z,2.75
2023-02-25T18:03:55.598Z,3.10
2023-02-25T18:06:44.739Z,2.92
2023-02-25T18:09:49.649Z,2.97
2023-02-25T18:12:38.414Z,3.88
2023-02-25T18:15:30.992Z,4.40
2023-02-25T18:18:22.648Z,6.25
2023-02-25T18:21:10.021Z,5.05
2023-02-25T18:23:55.277Z,3.90
2023-02-25T18:27:00.701Z,4.20
2023-02-25T18:29:46.005Z,2.95
2023-02-25T18:32:30.904Z,3.03
2023-02-25T18:35:17.277Z,3.63
2023-02-25T18:38:02.869Z,3.38
2023-02-25T18:40:49.102Z,2.47
2023-02-25T18:43:38.934Z,2.75
2023-02-25T18:49:09.751Z,2.05
2023-02-25T18:51:54.957Z,2.42
2023-02-25T18:54:41.539Z,2.10
2023-02-25T18:57:27.349Z,1.90
2023-02-25T19:00:13.946Z,2.10
2023-02-25T19:03:04.593Z,2.80
2023-02-25T19:05:49.994Z,2.17
2023-02-25T19:08:35.143Z,2.20
2023-02-25T19:11:25.940Z,2.35
2023-02-25T19:14:17.537Z,2.08
2023-02-25T19:17:03.470Z,2.20
2023-02-25T19:19:53.265Z,2.47
2023-02-25T19:22:42.960Z,2.50
2023-02-25T19:28:15.177Z,2.97
2023-02-25T19:31:00.437Z,3.20
2023-02-25T19:33:45.890Z,2.17
2023-02-25T19:36:31.170Z,1.80
2023-02-25T19:39:17.080Z,2.38
2023-02-25T19:42:02.041Z,2.35
2023-02-25T19:44:47.208Z,2.38
2023-02-25T19:47:32.035Z,2.28
2023-02-25T19:50:19.052Z,3.13
2023-02-25T19:53:05.485Z,2.45
2023-02-25T19:55:55.627Z,3.05
2023-02-25T19:58:40.485Z,2.60
2023-02-25T20:01:27.680Z,2.42
2023-02-25T20:04:12.784Z,2.63
2023-02-25T20:06:58.832Z,2.80
2023-02-25T20:09:43.788Z,2.92
2023-02-25T20:12:28.817Z,2.53
2023-02-25T20:15:15.171Z,2.55
2023-02-25T20:18:00.439Z,2.90
2023-02-25T20:20:45.499Z,3.25
2023-02-25T20:23:30.741Z,3.30
2023-02-25T20:26:18.604Z,3.67
2023-02-25T20:29:04.107Z,3.17
2023-02-25T20:31:49.844Z,3.60
2023-02-25T20:34:34.996Z,3.35
2023-02-25T20:37:24.647Z,3.53
2023-02-25T20:40:11.963Z,3.03
2023-02-25T20:42:56.998Z,3.22
2023-02-25T20:45:42.628Z,3.55
2023-02-25T20:48:30.504Z,3.45
2023-02-25T20:51:15.801Z,2.67
2023-02-25T20:54:01.158Z,3.13
2023-02-25T20:56:47.888Z,5.70
2023-02-25T20:59:34.974Z,9.75
2023-02-25T21:02:20.765Z,8.45
2023-02-25T21:05:05.958Z,10.10
2023-02-25T21:07:51.821Z,6.97
2023-02-25T21:10:37.235Z,7.18
2023-02-25T21:13:22.447Z,4.20
2023-02-25T21:16:08.048Z,5.00
2023-02-25T21:18:53.258Z,5.38
2023-02-25T21:21:38.622Z,3.58
2023-02-25T21:24:23.956Z,4.78
2023-02-25T21:27:09.220Z,3.58
2023-02-25T21:29:55.338Z,3.83
2023-02-25T21:32:40.189Z,3.17
2023-02-25T21:35:25.784Z,3.25
2023-02-25T21:38:11.178Z,3.08
2023-02-25T21:40:57.171Z,3.40
2023-02-25T21:43:43.650Z,3.58
2023-02-25T21:46:28.985Z,4.10
2023-02-25T21:49:14.334Z,4.05
2023-02-25T21:51:59.524Z,4.13
2023-02-25T21:54:44.726Z,3.22
2023-02-25T21:57:29.898Z,3.88
2023-02-25T22:00:15.537Z,3.35
2023-02-25T22:03:00.710Z,2.88
2023-02-25T22:05:47.121Z,3.53
2023-02-25T22:08:32.284Z,3.50
2023-02-25T22:11:23.019Z,3.67
2023-02-25T22:14:09.641Z,3.83
2023-02-25T22:16:54.950Z,3.97
2023-02-25T22:19:40.083Z,3.58
2023-02-25T22:22:25.081Z,2.97
2023-02-25T22:25:10.345Z,2.92
2023-02-25T22:27:55.369Z,3.42
2023-02-25T22:30:40.450Z,2.97
2023-02-25T22:33:25.474Z,3.08
2023-02-25T22:36:12.178Z,3.03
2023-02-25T22:38:57.205Z,2.78
2023-02-25T22:41:42.311Z,2.67
2023-02-25T22:44:27.359Z,2.42
2023-02-25T22:47:12.710Z,3.33
2023-02-25T22:49:57.797Z,3.13
2023-02-25T22:52:44.836Z,3.25
2023-02-25T22:55:33.176Z,3.17
2023-02-25T22:58:18.197Z,2.70
2023-02-25T23:01:03.501Z,3.10
2023-02-25T23:03:49.577Z,3.13
2023-02-25T23:06:43.389Z,3.53
2023-02-25T23:09:29.284Z,2.95
2023-02-25T23:12:14.395Z,2.92
2023-02-25T23:15:00.129Z,3.20
2023-02-25T23:17:46.183Z,2.85
2023-02-25T23:20:33.216Z,3.45
2023-02-25T23:23:18.226Z,3.10
2023-02-25T23:26:03.492Z,3.55
2023-02-25T23:28:49.161Z,3.20
2023-02-25T23:31:36.991Z,3.65
2023-02-25T23:34:23.850Z,2.95
2023-02-25T23:37:08.973Z,3.00
2023-02-25T23:39:54.226Z,3.50
2023-02-25T23:42:40.052Z,3.35
2023-02-25T23:45:25.032Z,2.80
2023-02-25T23:48:10.235Z,3.22
2023-02-25T23:50:55.125Z,2.20
2023-02-25T23:53:40.394Z,3.05
2023-02-25T23:56:29.609Z,2.53
2023-02-25T23:59:15.185Z,2.43
